sensor_id;sensor_type;location;lat;lon;timestamp;P1;durP1;ratioP1;P2;durP2;ratioP2
6223;SDS011;3145;42.726;23.342;2023-04-07T00:02:11;46.50;;;30.50;;
6223;SDS011;3145;42.726;23.342;2023-04-07T00:04:38;48.40;;;29.73;;
6223;SDS011;3145;42.726;23.342;2023-04-07T00:07:04;53.70;;;31.23;;
6223;SDS011;3145;42.726;23.342;2023-04-07T00:09:31;43.33;;;29.60;;
6223;SDS011;3145;42.726;23.342;2023-04-07T00:11:59;50.33;;;30.80;;
6223;SDS011;3145;42.726;23.342;2023-04-07T00:14:26;51.43;;;30.90;;
6223;SDS011;3145;42.726;23.342;2023-04-07T00:16:53;47.83;;;30.83;;
6223;SDS011;3145;42.726;23.342;2023-04-07T00:19:20;48.57;;;30.30;;
6223;SDS011;3145;42.726;23.342;2023-04-07T00:21:47;47.03;;;29.37;;
6223;SDS011;3145;42.726;23.342;2023-04-07T00:24:14;44.43;;;28.10;;
6223;SDS011;3145;42.726;23.342;2023-04-07T00:26:41;43.30;;;28.33;;
6223;SDS011;3145;42.726;23.342;2023-04-07T00:29:09;43.20;;;27.73;;
6223;SDS011;3145;42.726;23.342;2023-04-07T00:31:36;48.70;;;26.83;;
6223;SDS011;3145;42.726;23.342;2023-04-07T00:34:02;39.37;;;25.87;;
6223;SDS011;3145;42.726;23.342;2023-04-07T00:36:30;44.20;;;27.23;;
6223;SDS011;3145;42.726;23.342;2023-04-07T00:38:57;35.90;;;25.27;;
6223;SDS011;3145;42.726;23.342;2023-04-07T00:41:24;39.13;;;24.97;;
6223;SDS011;3145;42.726;23.342;2023-04-07T00:43:50;37.40;;;24.53;;
6223;SDS011;3145;42.726;23.342;2023-04-07T00:46:19;35.17;;;23.27;;
6223;SDS011;3145;42.726;23.342;2023-04-07T00:48:48;36.43;;;24.80;;
6223;SDS011;3145;42.726;23.342;2023-04-07T00:51:15;37.37;;;24.30;;
6223;SDS011;3145;42.726;23.342;2023-04-07T00:53:41;34.57;;;23.13;;
6223;SDS011;3145;42.726;23.342;2023-04-07T00:56:09;40.50;;;25.40;;
6223;SDS011;3145;42.726;23.342;2023-04-07T00:58:35;33.73;;;23.30;;
6223;SDS011;3145;42.726;23.342;2023-04-07T01:01:03;43.30;;;26.50;;
6223;SDS011;3145;42.726;23.342;2023-04-07T01:03:38;38.37;;;25.13;;
6223;SDS011;3145;42.726;23.342;2023-04-07T01:06:12;38.67;;;25.97;;
6223;SDS011;3145;42.726;23.342;2023-04-07T01:08:50;29.90;;;23.27;;
6223;SDS011;3145;42.726;23.342;2023-04-07T01:11:22;32.57;;;23.73;;
6223;SDS011;3145;42.726;23.342;2023-04-07T01:13:53;31.90;;;23.07;;
6223;SDS011;3145;42.726;23.342;2023-04-07T01:16:22;33.70;;;23.30;;
6223;SDS011;3145;42.726;23.342;2023-04-07T01:18:55;31.67;;;22.77;;
6223;SDS011;3145;42.726;23.342;2023-04-07T01:21:27;32.63;;;23.53;;
6223;SDS011;3145;42.726;23.342;2023-04-07T01:24:03;38.47;;;24.57;;
6223;SDS011;3145;42.726;23.342;2023-04-07T01:26:47;40.23;;;25.97;;
6223;SDS011;3145;42.726;23.342;2023-04-07T01:29:33;45.43;;;26.00;;
6223;SDS011;3145;42.726;23.342;2023-04-07T01:32:04;40.83;;;26.77;;
6223;SDS011;3145;42.726;23.342;2023-04-07T01:34:34;40.73;;;25.40;;
6223;SDS011;3145;42.726;23.342;2023-04-07T01:37:03;39.00;;;24.73;;
6223;SDS011;3145;42.726;23.342;2023-04-07T01:39:31;39.17;;;25.80;;
6223;SDS011;3145;42.726;23.342;2023-04-07T01:41:59;34.00;;;24.77;;
6223;SDS011;3145;42.726;23.342;2023-04-07T01:44:30;71.10;;;35.77;;
6223;SDS011;3145;42.726;23.342;2023-04-07T01:46:59;109.50;;;56.30;;
6223;SDS011;3145;42.726;23.342;2023-04-07T01:49:27;45.30;;;31.00;;
6223;SDS011;3145;42.726;23.342;2023-04-07T01:51:55;46.93;;;31.30;;
6223;SDS011;3145;42.726;23.342;2023-04-07T01:54:23;44.33;;;30.40;;
6223;SDS011;3145;42.726;23.342;2023-04-07T01:56:51;61.20;;;34.77;;
6223;SDS011;3145;42.726;23.342;2023-04-07T01:59:17;46.77;;;29.50;;
6223;SDS011;3145;42.726;23.342;2023-04-07T02:01:46;48.73;;;31.37;;
6223;SDS011;3145;42.726;23.342;2023-04-07T02:04:14;45.27;;;29.53;;
6223;SDS011;3145;42.726;23.342;2023-04-07T02:06:48;43.17;;;30.17;;
6223;SDS011;3145;42.726;23.342;2023-04-07T02:09:18;46.87;;;29.17;;
6223;SDS011;3145;42.726;23.342;2023-04-07T02:11:46;42.40;;;30.17;;
6223;SDS011;3145;42.726;23.342;2023-04-07T02:14:16;43.43;;;30.30;;
6223;SDS011;3145;42.726;23.342;2023-04-07T02:16:46;59.87;;;36.13;;
6223;SDS011;3145;42.726;23.342;2023-04-07T02:19:15;51.57;;;33.17;;
6223;SDS011;3145;42.726;23.342;2023-04-07T02:21:41;48.73;;;30.70;;
6223;SDS011;3145;42.726;23.342;2023-04-07T02:24:10;46.37;;;32.40;;
6223;SDS011;3145;42.726;23.342;2023-04-07T02:26:37;44.10;;;31.47;;
6223;SDS011;3145;42.726;23.342;2023-04-07T02:29:05;54.33;;;34.70;;
6223;SDS011;3145;42.726;23.342;2023-04-07T02:31:31;64.17;;;35.77;;
6223;SDS011;3145;42.726;23.342;2023-04-07T02:33:59;46.27;;;30.10;;
6223;SDS011;3145;42.726;23.342;2023-04-07T02:36:26;57.33;;;31.90;;
6223;SDS011;3145;42.726;23.342;2023-04-07T02:38:53;45.77;;;29.83;;
6223;SDS011;3145;42.726;23.342;2023-04-07T02:41:19;50.67;;;30.53;;
6223;SDS011;3145;42.726;23.342;2023-04-07T02:43:46;58.13;;;31.27;;
6223;SDS011;3145;42.726;23.342;2023-04-07T02:46:13;48.30;;;31.70;;
6223;SDS011;3145;42.726;23.342;2023-04-07T02:48:40;47.80;;;30.50;;
6223;SDS011;3145;42.726;23.342;2023-04-07T02:51:08;49.60;;;31.87;;
6223;SDS011;3145;42.726;23.342;2023-04-07T02:53:35;55.33;;;34.07;;
6223;SDS011;3145;42.726;23.342;2023-04-07T02:56:01;83.07;;;39.77;;
6223;SDS011;3145;42.726;23.342;2023-04-07T02:58:28;72.17;;;38.10;;
6223;SDS011;3145;42.726;23.342;2023-04-07T03:00:55;56.43;;;34.80;;
6223;SDS011;3145;42.726;23.342;2023-04-07T03:03:22;73.73;;;37.27;;
6223;SDS011;3145;42.726;23.342;2023-04-07T03:05:48;67.93;;;34.70;;
6223;SDS011;3145;42.726;23.342;2023-04-07T03:08:16;54.17;;;33.37;;
6223;SDS011;3145;42.726;23.342;2023-04-07T03:10:43;54.60;;;33.97;;
6223;SDS011;3145;42.726;23.342;2023-04-07T03:13:10;53.83;;;36.13;;
6223;SDS011;3145;42.726;23.342;2023-04-07T03:15:40;61.73;;;36.73;;
6223;SDS011;3145;42.726;23.342;2023-04-07T03:18:07;65.77;;;38.80;;
6223;SDS011;3145;42.726;23.342;2023-04-07T03:20:33;62.50;;;38.93;;
6223;SDS011;3145;42.726;23.342;2023-04-07T03:23:00;77.93;;;40.50;;
6223;SDS011;3145;42.726;23.342;2023-04-07T03:25:28;77.00;;;43.50;;
6223;SDS011;3145;42.726;23.342;2023-04-07T03:27:55;81.57;;;43.87;;
6223;SDS011;3145;42.726;23.342;2023-04-07T03:30:22;71.03;;;41.07;;
6223;SDS011;3145;42.726;23.342;2023-04-07T03:32:48;79.57;;;37.97;;
6223;SDS011;3145;42.726;23.342;2023-04-07T03:35:15;64.33;;;38.63;;
6223;SDS011;3145;42.726;23.342;2023-04-07T03:37:42;84.30;;;45.07;;
6223;SDS011;3145;42.726;23.342;2023-04-07T03:40:09;274.20;;;122.27;;
6223;SDS011;3145;42.726;23.342;2023-04-07T03:42:38;200.10;;;92.83;;
6223;SDS011;3145;42.726;23.342;2023-04-07T03:45:05;150.37;;;69.60;;
6223;SDS011;3145;42.726;23.342;2023-04-07T03:47:32;159.07;;;74.60;;
6223;SDS011;3145;42.726;23.342;2023-04-07T03:49:59;111.27;;;56.37;;
6223;SDS011;3145;42.726;23.342;2023-04-07T03:52:26;125.87;;;61.30;;
6223;SDS011;3145;42.726;23.342;2023-04-07T03:54:52;127.60;;;62.93;;
6223;SDS011;3145;42.726;23.342;2023-04-07T03:57:19;115.97;;;63.47;;
6223;SDS011;3145;42.726;23.342;2023-04-07T03:59:48;80.80;;;44.90;;
6223;SDS011;3145;42.726;23.342;2023-04-07T04:02:15;101.43;;;50.73;;
6223;SDS011;3145;42.726;23.342;2023-04-07T04:04:42;97.07;;;48.90;;
6223;SDS011;3145;42.726;23.342;2023-04-07T04:07:08;56.17;;;35.67;;
6223;SDS011;3145;42.726;23.342;2023-04-07T04:09:35;46.93;;;30.67;;
6223;SDS011;3145;42.726;23.342;2023-04-07T04:12:02;58.17;;;35.13;;
6223;SDS011;3145;42.726;23.342;2023-04-07T04:14:29;54.43;;;35.13;;
6223;SDS011;3145;42.726;23.342;2023-04-07T04:16:57;59.07;;;39.27;;
6223;SDS011;3145;42.726;23.342;2023-04-07T04:19:23;53.90;;;35.00;;
6223;SDS011;3145;42.726;23.342;2023-04-07T04:21:50;62.43;;;40.40;;
6223;SDS011;3145;42.726;23.342;2023-04-07T04:24:17;67.87;;;37.60;;
6223;SDS011;3145;42.726;23.342;2023-04-07T04:26:44;66.53;;;41.07;;
6223;SDS011;3145;42.726;23.342;2023-04-07T04:29:10;52.53;;;34.93;;
6223;SDS011;3145;42.726;23.342;2023-04-07T04:31:37;52.30;;;34.33;;
6223;SDS011;3145;42.726;23.342;2023-04-07T04:34:05;49.33;;;30.47;;
6223;SDS011;3145;42.726;23.342;2023-04-07T04:36:32;51.50;;;31.37;;
6223;SDS011;3145;42.726;23.342;2023-04-07T04:38:59;79.07;;;43.27;;
6223;SDS011;3145;42.726;23.342;2023-04-07T04:41:25;48.03;;;30.90;;
6223;SDS011;3145;42.726;23.342;2023-04-07T04:43:52;54.57;;;32.63;;
6223;SDS011;3145;42.726;23.342;2023-04-07T04:46:19;50.53;;;32.47;;
6223;SDS011;3145;42.726;23.342;2023-04-07T04:48:45;50.37;;;31.83;;
6223;SDS011;3145;42.726;23.342;2023-04-07T04:51:13;50.00;;;32.90;;
6223;SDS011;3145;42.726;23.342;2023-04-07T04:53:40;47.37;;;33.87;;
6223;SDS011;3145;42.726;23.342;2023-04-07T04:56:07;59.13;;;36.27;;
6223;SDS011;3145;42.726;23.342;2023-04-07T04:58:34;46.60;;;33.37;;
6223;SDS011;3145;42.726;23.342;2023-04-07T05:01:01;51.23;;;31.60;;
6223;SDS011;3145;42.726;23.342;2023-04-07T05:03:27;59.90;;;34.43;;
6223;SDS011;3145;42.726;23.342;2023-04-07T05:05:54;52.60;;;32.83;;
6223;SDS011;3145;42.726;23.342;2023-04-07T05:08:22;54.37;;;31.43;;
6223;SDS011;3145;42.726;23.342;2023-04-07T05:10:49;45.87;;;30.63;;
6223;SDS011;3145;42.726;23.342;2023-04-07T05:13:16;59.30;;;38.07;;
6223;SDS011;3145;42.726;23.342;2023-04-07T05:15:43;87.80;;;50.40;;
6223;SDS011;3145;42.726;23.342;2023-04-07T05:18:10;57.27;;;36.83;;
6223;SDS011;3145;42.726;23.342;2023-04-07T05:20:37;82.33;;;48.17;;
6223;SDS011;3145;42.726;23.342;2023-04-07T05:23:04;81.90;;;45.57;;
6223;SDS011;3145;42.726;23.342;2023-04-07T05:25:32;77.03;;;45.30;;
6223;SDS011;3145;42.726;23.342;2023-04-07T05:27:59;117.60;;;66.80;;
6223;SDS011;3145;42.726;23.342;2023-04-07T05:30:25;128.00;;;71.30;;
6223;SDS011;3145;42.726;23.342;2023-04-07T05:32:52;135.97;;;69.83;;
6223;SDS011;3145;42.726;23.342;2023-04-07T05:35:19;121.50;;;62.93;;
6223;SDS011;3145;42.726;23.342;2023-04-07T05:37:46;123.53;;;61.10;;
6223;SDS011;3145;42.726;23.342;2023-04-07T05:40:13;103.77;;;54.07;;
6223;SDS011;3145;42.726;23.342;2023-04-07T05:42:41;97.67;;;49.43;;
6223;SDS011;3145;42.726;23.342;2023-04-07T05:45:09;94.13;;;44.60;;
6223;SDS011;3145;42.726;23.342;2023-04-07T05:47:36;107.70;;;49.10;;
6223;SDS011;3145;42.726;23.342;2023-04-07T05:50:03;104.73;;;45.87;;
6223;SDS011;3145;42.726;23.342;2023-04-07T05:52:30;92.10;;;43.27;;
6223;SDS011;3145;42.726;23.342;2023-04-07T05:54:57;109.03;;;45.90;;
6223;SDS011;3145;42.726;23.342;2023-04-07T05:57:24;210.53;;;89.97;;
6223;SDS011;3145;42.726;23.342;2023-04-07T05:59:53;86.77;;;44.20;;
6223;SDS011;3145;42.726;23.342;2023-04-07T06:02:20;98.30;;;46.33;;
6223;SDS011;3145;42.726;23.342;2023-04-07T06:04:47;117.07;;;62.63;;
6223;SDS011;3145;42.726;23.342;2023-04-07T06:07:14;68.03;;;35.93;;
6223;SDS011;3145;42.726;23.342;2023-04-07T06:09:41;66.47;;;37.10;;
6223;SDS011;3145;42.726;23.342;2023-04-07T06:12:07;202.97;;;106.77;;
6223;SDS011;3145;42.726;23.342;2023-04-07T06:14:36;70.33;;;36.17;;
6223;SDS011;3145;42.726;23.342;2023-04-07T06:17:04;75.40;;;43.97;;
6223;SDS011;3145;42.726;23.342;2023-04-07T06:19:31;35.97;;;24.80;;
6223;SDS011;3145;42.726;23.342;2023-04-07T06:21:58;43.53;;;26.67;;
6223;SDS011;3145;42.726;23.342;2023-04-07T06:24:25;40.43;;;24.37;;
6223;SDS011;3145;42.726;23.342;2023-04-07T06:26:51;37.73;;;25.17;;
6223;SDS011;3145;42.726;23.342;2023-04-07T06:29:18;44.07;;;26.37;;
6223;SDS011;3145;42.726;23.342;2023-04-07T06:31:45;79.50;;;35.07;;
6223;SDS011;3145;42.726;23.342;2023-04-07T06:34:13;35.03;;;23.67;;
6223;SDS011;3145;42.726;23.342;2023-04-07T06:36:40;27.60;;;20.57;;
6223;SDS011;3145;42.726;23.342;2023-04-07T06:39:07;28.50;;;20.17;;
6223;SDS011;3145;42.726;23.342;2023-04-07T06:41:34;23.53;;;18.23;;
6223;SDS011;3145;42.726;23.342;2023-04-07T06:44:01;24.73;;;18.53;;
6223;SDS011;3145;42.726;23.342;2023-04-07T06:46:27;27.20;;;18.10;;
6223;SDS011;3145;42.726;23.342;2023-04-07T06:48:54;23.43;;;17.27;;
6223;SDS011;3145;42.726;23.342;2023-04-07T06:51:22;21.13;;;17.13;;
6223;SDS011;3145;42.726;23.342;2023-04-07T06:53:50;29.47;;;21.50;;
6223;SDS011;3145;42.726;23.342;2023-04-07T06:56:17;20.53;;;16.87;;
6223;SDS011;3145;42.726;23.342;2023-04-07T06:58:43;22.63;;;17.50;;
6223;SDS011;3145;42.726;23.342;2023-04-07T07:01:10;19.50;;;17.03;;
6223;SDS011;3145;42.726;23.342;2023-04-07T07:03:37;26.47;;;17.70;;
6223;SDS011;3145;42.726;23.342;2023-04-07T07:06:04;22.53;;;18.40;;
6223;SDS011;3145;42.726;23.342;2023-04-07T07:08:32;25.83;;;18.87;;
6223;SDS011;3145;42.726;23.342;2023-04-07T07:10:59;24.80;;;19.60;;
6223;SDS011;3145;42.726;23.342;2023-04-07T07:13:26;27.63;;;20.27;;
6223;SDS011;3145;42.726;23.342;2023-04-07T07:15:54;29.13;;;18.97;;
6223;SDS011;3145;42.726;23.342;2023-04-07T07:18:20;27.17;;;20.63;;
6223;SDS011;3145;42.726;23.342;2023-04-07T07:20:47;27.33;;;20.70;;
6223;SDS011;3145;42.726;23.342;2023-04-07T07:23:14;30.33;;;20.00;;
6223;SDS011;3145;42.726;23.342;2023-04-07T07:25:42;28.83;;;21.23;;
6223;SDS011;3145;42.726;23.342;2023-04-07T07:28:10;25.73;;;17.17;;
6223;SDS011;3145;42.726;23.342;2023-04-07T07:30:37;32.57;;;21.20;;
6223;SDS011;3145;42.726;23.342;2023-04-07T07:33:04;26.60;;;18.13;;
6223;SDS011;3145;42.726;23.342;2023-04-07T07:35:31;22.43;;;17.70;;
6223;SDS011;3145;42.726;23.342;2023-04-07T07:37:59;26.30;;;19.10;;
6223;SDS011;3145;42.726;23.342;2023-04-07T07:40:26;23.27;;;18.67;;
6223;SDS011;3145;42.726;23.342;2023-04-07T07:42:54;27.37;;;18.70;;
6223;SDS011;3145;42.726;23.342;2023-04-07T07:45:21;24.13;;;16.93;;
6223;SDS011;3145;42.726;23.342;2023-04-07T07:47:48;18.50;;;12.57;;
6223;SDS011;3145;42.726;23.342;2023-04-07T07:50:15;11.60;;;10.50;;
6223;SDS011;3145;42.726;23.342;2023-04-07T07:52:41;10.10;;;8.97;;
6223;SDS011;3145;42.726;23.342;2023-04-07T07:55:08;10.03;;;9.03;;
6223;SDS011;3145;42.726;23.342;2023-04-07T07:57:35;9.30;;;8.40;;
6223;SDS011;3145;42.726;23.342;2023-04-07T08:00:04;10.53;;;9.13;;
6223;SDS011;3145;42.726;23.342;2023-04-07T08:02:31;11.53;;;8.73;;
6223;SDS011;3145;42.726;23.342;2023-04-07T08:04:58;10.97;;;9.87;;
6223;SDS011;3145;42.726;23.342;2023-04-07T08:07:25;12.30;;;8.97;;
6223;SDS011;3145;42.726;23.342;2023-04-07T08:09:52;10.67;;;9.53;;
6223;SDS011;3145;42.726;23.342;2023-04-07T08:12:19;9.93;;;8.77;;
6223;SDS011;3145;42.726;23.342;2023-04-07T08:14:46;16.20;;;10.33;;
6223;SDS011;3145;42.726;23.342;2023-04-07T08:17:15;13.93;;;12.57;;
6223;SDS011;3145;42.726;23.342;2023-04-07T08:19:42;14.80;;;10.77;;
6223;SDS011;3145;42.726;23.342;2023-04-07T08:22:09;10.07;;;8.97;;
6223;SDS011;3145;42.726;23.342;2023-04-07T08:24:35;10.50;;;9.40;;
6223;SDS011;3145;42.726;23.342;2023-04-07T08:27:02;10.20;;;9.20;;
6223;SDS011;3145;42.726;23.342;2023-04-07T08:29:30;9.67;;;8.73;;
6223;SDS011;3145;42.726;23.342;2023-04-07T08:31:56;10.80;;;9.60;;
6223;SDS011;3145;42.726;23.342;2023-04-07T08:34:24;9.47;;;8.47;;
6223;SDS011;3145;42.726;23.342;2023-04-07T08:36:51;8.87;;;7.97;;
6223;SDS011;3145;42.726;23.342;2023-04-07T08:39:18;10.53;;;8.83;;
6223;SDS011;3145;42.726;23.342;2023-04-07T08:41:45;10.30;;;9.20;;
6223;SDS011;3145;42.726;23.342;2023-04-07T08:44:13;11.83;;;10.73;;
6223;SDS011;3145;42.726;23.342;2023-04-07T08:46:41;10.77;;;9.73;;
6223;SDS011;3145;42.726;23.342;2023-04-07T08:49:10;12.53;;;9.73;;
6223;SDS011;3145;42.726;23.342;2023-04-07T08:51:42;10.97;;;9.27;;
6223;SDS011;3145;42.726;23.342;2023-04-07T08:54:12;12.57;;;9.33;;
6223;SDS011;3145;42.726;23.342;2023-04-07T08:56:40;10.70;;;9.63;;
6223;SDS011;3145;42.726;23.342;2023-04-07T08:59:09;10.47;;;9.37;;
6223;SDS011;3145;42.726;23.342;2023-04-07T09:01:37;9.13;;;8.20;;
6223;SDS011;3145;42.726;23.342;2023-04-07T09:04:05;11.57;;;9.73;;
6223;SDS011;3145;42.726;23.342;2023-04-07T09:06:33;9.87;;;8.87;;
6223;SDS011;3145;42.726;23.342;2023-04-07T09:09:02;12.30;;;9.33;;
6223;SDS011;3145;42.726;23.342;2023-04-07T09:11:33;13.00;;;11.20;;
6223;SDS011;3145;42.726;23.342;2023-04-07T09:14:01;10.80;;;9.80;;
6223;SDS011;3145;42.726;23.342;2023-04-07T09:16:28;14.60;;;11.37;;
6223;SDS011;3145;42.726;23.342;2023-04-07T09:18:56;16.60;;;11.80;;
6223;SDS011;3145;42.726;23.342;2023-04-07T09:21:23;21.10;;;13.13;;
6223;SDS011;3145;42.726;23.342;2023-04-07T09:23:51;12.60;;;11.30;;
6223;SDS011;3145;42.726;23.342;2023-04-07T09:26:20;11.40;;;10.27;;
6223;SDS011;3145;42.726;23.342;2023-04-07T09:28:50;11.10;;;10.10;;
6223;SDS011;3145;42.726;23.342;2023-04-07T09:31:19;10.93;;;9.93;;
6223;SDS011;3145;42.726;23.342;2023-04-07T09:33:46;11.33;;;10.13;;
6223;SDS011;3145;42.726;23.342;2023-04-07T09:36:14;16.97;;;11.03;;
6223;SDS011;3145;42.726;23.342;2023-04-07T09:38:42;16.33;;;12.40;;
6223;SDS011;3145;42.726;23.342;2023-04-07T09:41:10;11.60;;;10.33;;
6223;SDS011;3145;42.726;23.342;2023-04-07T09:43:41;12.17;;;10.87;;
6223;SDS011;3145;42.726;23.342;2023-04-07T09:46:10;11.70;;;10.57;;
6223;SDS011;3145;42.726;23.342;2023-04-07T09:48:38;11.80;;;9.87;;
6223;SDS011;3145;42.726;23.342;2023-04-07T09:51:05;10.93;;;9.90;;
6223;SDS011;3145;42.726;23.342;2023-04-07T09:53:40;10.97;;;9.90;;
6223;SDS011;3145;42.726;23.342;2023-04-07T09:56:08;11.97;;;9.40;;
6223;SDS011;3145;42.726;23.342;2023-04-07T10:01:05;12.57;;;9.93;;
6223;SDS011;3145;42.726;23.342;2023-04-07T10:03:33;10.47;;;9.23;;
6223;SDS011;3145;42.726;23.342;2023-04-07T10:06:00;13.67;;;8.80;;
6223;SDS011;3145;42.726;23.342;2023-04-07T10:08:27;9.77;;;8.97;;
6223;SDS011;3145;42.726;23.342;2023-04-07T10:10:56;9.33;;;8.53;;
6223;SDS011;3145;42.726;23.342;2023-04-07T10:13:24;10.70;;;9.27;;
6223;SDS011;3145;42.726;23.342;2023-04-07T10:15:51;12.70;;;9.20;;
6223;SDS011;3145;42.726;23.342;2023-04-07T10:18:19;10.63;;;9.70;;
6223;SDS011;3145;42.726;23.342;2023-04-07T10:20:48;10.63;;;9.67;;
6223;SDS011;3145;42.726;23.342;2023-04-07T10:23:18;10.20;;;9.20;;
6223;SDS011;3145;42.726;23.342;2023-04-07T10:25:47;12.57;;;10.03;;
6223;SDS011;3145;42.726;23.342;2023-04-07T10:28:16;10.33;;;9.43;;
6223;SDS011;3145;42.726;23.342;2023-04-07T10:30:46;10.47;;;9.07;;
6223;SDS011;3145;42.726;23.342;2023-04-07T10:33:13;11.00;;;9.93;;
6223;SDS011;3145;42.726;23.342;2023-04-07T10:38:31;13.10;;;10.57;;
6223;SDS011;3145;42.726;23.342;2023-04-07T10:41:04;12.47;;;10.13;;
6223;SDS011;3145;42.726;23.342;2023-04-07T10:43:57;13.60;;;10.07;;
6223;SDS011;3145;42.726;23.342;2023-04-07T10:46:23;11.63;;;10.13;;
6223;SDS011;3145;42.726;23.342;2023-04-07T10:51:36;11.50;;;9.97;;
6223;SDS011;3145;42.726;23.342;2023-04-07T10:54:14;20.43;;;18.03;;
6223;SDS011;3145;42.726;23.342;2023-04-07T10:59:34;11.57;;;10.43;;
6223;SDS011;3145;42.726;23.342;2023-04-07T11:05:03;14.03;;;9.67;;
6223;SDS011;3145;42.726;23.342;2023-04-07T11:07:43;15.43;;;10.37;;
6223;SDS011;3145;42.726;23.342;2023-04-07T11:10:14;10.93;;;9.50;;
6223;SDS011;3145;42.726;23.342;2023-04-07T11:12:43;11.67;;;10.67;;
6223;SDS011;3145;42.726;23.342;2023-04-07T11:15:23;11.60;;;10.53;;
6223;SDS011;3145;42.726;23.342;2023-04-07T11:20:41;11.47;;;10.47;;
6223;SDS011;3145;42.726;23.342;2023-04-07T11:23:10;11.37;;;10.13;;
6223;SDS011;3145;42.726;23.342;2023-04-07T11:25:38;11.67;;;10.57;;
6223;SDS011;3145;42.726;23.342;2023-04-07T11:28:08;13.93;;;10.50;;
6223;SDS011;3145;42.726;23.342;2023-04-07T11:30:37;17.10;;;10.97;;
6223;SDS011;3145;42.726;23.342;2023-04-07T11:33:04;12.23;;;10.83;;
6223;SDS011;3145;42.726;23.342;2023-04-07T11:35:32;11.50;;;9.73;;
6223;SDS011;3145;42.726;23.342;2023-04-07T11:38:00;12.40;;;11.20;;
6223;SDS011;3145;42.726;23.342;2023-04-07T11:40:33;13.47;;;11.93;;
6223;SDS011;3145;42.726;23.342;2023-04-07T11:43:01;14.83;;;11.30;;
6223;SDS011;3145;42.726;23.342;2023-04-07T11:45:28;19.10;;;13.63;;
6223;SDS011;3145;42.726;23.342;2023-04-07T11:47:55;20.40;;;15.63;;
6223;SDS011;3145;42.726;23.342;2023-04-07T11:50:37;16.30;;;12.37;;
6223;SDS011;3145;42.726;23.342;2023-04-07T11:53:05;11.50;;;10.40;;
6223;SDS011;3145;42.726;23.342;2023-04-07T11:55:33;15.57;;;13.57;;
6223;SDS011;3145;42.726;23.342;2023-04-07T11:58:04;12.27;;;11.07;;
6223;SDS011;3145;42.726;23.342;2023-04-07T12:00:34;13.20;;;11.93;;
6223;SDS011;3145;42.726;23.342;2023-04-07T12:03:10;12.07;;;10.93;;
6223;SDS011;3145;42.726;23.342;2023-04-07T12:05:41;17.00;;;13.20;;
6223;SDS011;3145;42.726;23.342;2023-04-07T12:08:09;12.57;;;11.10;;
6223;SDS011;3145;42.726;23.342;2023-04-07T12:10:37;12.83;;;10.53;;
6223;SDS011;3145;42.726;23.342;2023-04-07T12:13:05;11.17;;;9.97;;
6223;SDS011;3145;42.726;23.342;2023-04-07T12:15:33;11.00;;;9.90;;
6223;SDS011;3145;42.726;23.342;2023-04-07T12:18:00;12.83;;;11.53;;
6223;SDS011;3145;42.726;23.342;2023-04-07T12:20:27;13.23;;;11.87;;
6223;SDS011;3145;42.726;23.342;2023-04-07T12:22:54;12.63;;;10.90;;
6223;SDS011;3145;42.726;23.342;2023-04-07T12:25:21;12.97;;;11.77;;
6223;SDS011;3145;42.726;23.342;2023-04-07T12:27:50;12.60;;;11.23;;
6223;SDS011;3145;42.726;23.342;2023-04-07T12:30:16;12.37;;;11.27;;
6223;SDS011;3145;42.726;23.342;2023-04-07T12:32:43;17.17;;;11.87;;
6223;SDS011;3145;42.726;23.342;2023-04-07T12:35:10;13.83;;;11.77;;
6223;SDS011;3145;42.726;23.342;2023-04-07T12:37:36;13.47;;;12.17;;
6223;SDS011;3145;42.726;23.342;2023-04-07T12:40:04;13.17;;;11.80;;
6223;SDS011;3145;42.726;23.342;2023-04-07T12:42:31;18.80;;;13.90;;
6223;SDS011;3145;42.726;23.342;2023-04-07T12:44:59;11.60;;;10.50;;
6223;SDS011;3145;42.726;23.342;2023-04-07T12:47:27;18.27;;;14.27;;
6223;SDS011;3145;42.726;23.342;2023-04-07T12:49:53;13.63;;;12.17;;
6223;SDS011;3145;42.726;23.342;2023-04-07T12:52:20;15.23;;;12.67;;
6223;SDS011;3145;42.726;23.342;2023-04-07T12:54:47;18.40;;;12.90;;
6223;SDS011;3145;42.726;23.342;2023-04-07T12:57:14;18.67;;;14.03;;
6223;SDS011;3145;42.726;23.342;2023-04-07T12:59:41;13.67;;;12.27;;
6223;SDS011;3145;42.726;23.342;2023-04-07T13:02:09;12.80;;;11.60;;
6223;SDS011;3145;42.726;23.342;2023-04-07T13:04:37;14.67;;;13.03;;
6223;SDS011;3145;42.726;23.342;2023-04-07T13:07:07;14.07;;;12.53;;
6223;SDS011;3145;42.726;23.342;2023-04-07T13:09:34;16.73;;;13.13;;
6223;SDS011;3145;42.726;23.342;2023-04-07T13:12:01;17.17;;;13.30;;
6223;SDS011;3145;42.726;23.342;2023-04-07T13:14:27;13.87;;;11.93;;
6223;SDS011;3145;42.726;23.342;2023-04-07T13:16:54;13.87;;;12.50;;
6223;SDS011;3145;42.726;23.342;2023-04-07T13:19:22;15.73;;;12.53;;
6223;SDS011;3145;42.726;23.342;2023-04-07T13:21:49;13.33;;;12.03;;
6223;SDS011;3145;42.726;23.342;2023-04-07T13:24:16;17.50;;;12.80;;
6223;SDS011;3145;42.726;23.342;2023-04-07T13:26:42;13.67;;;12.37;;
6223;SDS011;3145;42.726;23.342;2023-04-07T13:29:09;14.37;;;12.87;;
6223;SDS011;3145;42.726;23.342;2023-04-07T13:31:36;17.10;;;12.70;;
6223;SDS011;3145;42.726;23.342;2023-04-07T13:34:02;12.70;;;11.47;;
6223;SDS011;3145;42.726;23.342;2023-04-07T13:36:31;13.57;;;11.73;;
6223;SDS011;3145;42.726;23.342;2023-04-07T13:38:58;13.30;;;11.90;;
6223;SDS011;3145;42.726;23.342;2023-04-07T13:41:26;14.77;;;11.73;;
6223;SDS011;3145;42.726;23.342;2023-04-07T13:43:52;13.57;;;12.27;;
6223;SDS011;3145;42.726;23.342;2023-04-07T13:46:19;12.80;;;11.60;;
6223;SDS011;3145;42.726;23.342;2023-04-07T13:48:49;13.87;;;11.03;;
6223;SDS011;3145;42.726;23.342;2023-04-07T13:51:16;13.10;;;11.73;;
6223;SDS011;3145;42.726;23.342;2023-04-07T13:53:51;13.37;;;11.97;;
6223;SDS011;3145;42.726;23.342;2023-04-07T13:56:19;13.10;;;11.40;;
6223;SDS011;3145;42.726;23.342;2023-04-07T13:58:47;17.43;;;13.10;;
6223;SDS011;3145;42.726;23.342;2023-04-07T14:01:17;28.67;;;19.00;;
6223;SDS011;3145;42.726;23.342;2023-04-07T14:03:44;14.27;;;12.57;;
6223;SDS011;3145;42.726;23.342;2023-04-07T14:06:11;12.87;;;11.60;;
6223;SDS011;3145;42.726;23.342;2023-04-07T14:08:38;13.13;;;11.83;;
6223;SDS011;3145;42.726;23.342;2023-04-07T14:11:06;19.47;;;15.20;;
6223;SDS011;3145;42.726;23.342;2023-04-07T14:13:33;14.27;;;12.33;;
6223;SDS011;3145;42.726;23.342;2023-04-07T14:16:00;13.33;;;11.93;;
6223;SDS011;3145;42.726;23.342;2023-04-07T14:18:27;20.67;;;14.97;;
6223;SDS011;3145;42.726;23.342;2023-04-07T14:20:55;21.80;;;16.20;;
6223;SDS011;3145;42.726;23.342;2023-04-07T14:23:22;21.40;;;16.53;;
6223;SDS011;3145;42.726;23.342;2023-04-07T14:25:49;15.83;;;14.13;;
6223;SDS011;3145;42.726;23.342;2023-04-07T14:28:17;13.70;;;12.40;;
6223;SDS011;3145;42.726;23.342;2023-04-07T14:30:44;13.97;;;12.63;;
6223;SDS011;3145;42.726;23.342;2023-04-07T14:33:11;15.77;;;14.13;;
6223;SDS011;3145;42.726;23.342;2023-04-07T14:35:38;17.37;;;14.40;;
6223;SDS011;3145;42.726;23.342;2023-04-07T14:38:05;16.77;;;13.83;;
6223;SDS011;3145;42.726;23.342;2023-04-07T14:40:31;20.37;;;14.33;;
6223;SDS011;3145;42.726;23.342;2023-04-07T14:42:58;15.90;;;14.23;;
6223;SDS011;3145;42.726;23.342;2023-04-07T14:45:26;15.97;;;13.57;;
6223;SDS011;3145;42.726;23.342;2023-04-07T14:47:53;14.63;;;13.23;;
6223;SDS011;3145;42.726;23.342;2023-04-07T14:50:20;14.20;;;12.80;;
6223;SDS011;3145;42.726;23.342;2023-04-07T14:52:48;14.73;;;13.30;;
6223;SDS011;3145;42.726;23.342;2023-04-07T14:55:15;13.93;;;12.27;;
6223;SDS011;3145;42.726;23.342;2023-04-07T14:57:42;16.90;;;13.53;;